sensor_id;sensor_type;location;lat;lon;timestamp;temperature;humidity
57576;DHT22;43412;-33.800;150.804;2023-05-24T00:00:05;23.10;80.00
57576;DHT22;43412;-33.800;150.804;2023-05-24T00:02:39;22.90;80.10
57576;DHT22;43412;-33.800;150.804;2023-05-24T00:05:09;22.80;80.80
57576;DHT22;43412;-33.800;150.804;2023-05-24T00:07:37;23.00;79.40
57576;DHT22;43412;-33.800;150.804;2023-05-24T00:10:05;22.90;80.60
57576;DHT22;43412;-33.800;150.804;2023-05-24T00:12:33;23.30;79.00
57576;DHT22;43412;-33.800;150.804;2023-05-24T00:15:01;23.40;79.00
57576;DHT22;43412;-33.800;150.804;2023-05-24T00:17:28;23.50;80.00
57576;DHT22;43412;-33.800;150.804;2023-05-24T00:19:56;23.80;78.90
57576;DHT22;43412;-33.800;150.804;2023-05-24T00:22:23;24.20;77.80
57576;DHT22;43412;-33.800;150.804;2023-05-24T00:24:51;24.20;79.10
57576;DHT22;43412;-33.800;150.804;2023-05-24T00:27:19;24.50;78.10
57576;DHT22;43412;-33.800;150.804;2023-05-24T00:29:46;24.60;78.50
57576;DHT22;43412;-33.800;150.804;2023-05-24T00:32:13;24.80;77.40
57576;DHT22;43412;-33.800;150.804;2023-05-24T00:34:41;25.10;76.30
57576;DHT22;43412;-33.800;150.804;2023-05-24T00:37:08;25.20;76.10
57576;DHT22;43412;-33.800;150.804;2023-05-24T00:39:36;25.50;76.30
57576;DHT22;43412;-33.800;150.804;2023-05-24T00:42:04;25.10;78.00
57576;DHT22;43412;-33.800;150.804;2023-05-24T00:44:31;25.70;75.80
57576;DHT22;43412;-33.800;150.804;2023-05-24T00:46:59;25.60;76.30
57576;DHT22;43412;-33.800;150.804;2023-05-24T00:49:27;25.90;74.80
57576;DHT22;43412;-33.800;150.804;2023-05-24T00:51:55;25.80;75.80
57576;DHT22;43412;-33.800;150.804;2023-05-24T00:54:22;25.80;75.00
57576;DHT22;43412;-33.800;150.804;2023-05-24T00:56:52;25.30;75.90
57576;DHT22;43412;-33.800;150.804;2023-05-24T00:59:20;25.40;75.60
57576;DHT22;43412;-33.800;150.804;2023-05-24T01:01:48;25.20;75.90
57576;DHT22;43412;-33.800;150.804;2023-05-24T01:04:16;25.30;75.90
57576;DHT22;43412;-33.800;150.804;2023-05-24T01:15:16;26.30;74.90
57576;DHT22;43412;-33.800;150.804;2023-05-24T01:18:15;26.40;74.20
57576;DHT22;43412;-33.800;150.804;2023-05-24T01:20:43;26.60;75.00
57576;DHT22;43412;-33.800;150.804;2023-05-24T01:23:35;26.60;73.30
57576;DHT22;43412;-33.800;150.804;2023-05-24T01:26:19;26.50;74.40
57576;DHT22;43412;-33.800;150.804;2023-05-24T01:28:48;26.70;75.50
57576;DHT22;43412;-33.800;150.804;2023-05-24T01:31:17;26.80;73.40
57576;DHT22;43412;-33.800;150.804;2023-05-24T01:33:47;26.50;73.80
57576;DHT22;43412;-33.800;150.804;2023-05-24T01:36:14;26.60;73.30
57576;DHT22;43412;-33.800;150.804;2023-05-24T01:38:42;26.60;74.90
57576;DHT22;43412;-33.800;150.804;2023-05-24T01:44:30;26.80;74.10
57576;DHT22;43412;-33.800;150.804;2023-05-24T01:47:27;26.80;73.00
57576;DHT22;43412;-33.800;150.804;2023-05-24T01:50:19;27.10;73.40
57576;DHT22;43412;-33.800;150.804;2023-05-24T01:52:50;27.10;73.70
57576;DHT22;43412;-33.800;150.804;2023-05-24T01:55:18;27.20;72.60
57576;DHT22;43412;-33.800;150.804;2023-05-24T01:57:48;27.20;73.30
57576;DHT22;43412;-33.800;150.804;2023-05-24T02:00:18;27.30;73.40
57576;DHT22;43412;-33.800;150.804;2023-05-24T02:02:46;27.20;73.80
57576;DHT22;43412;-33.800;150.804;2023-05-24T02:05:14;27.60;73.40
57576;DHT22;43412;-33.800;150.804;2023-05-24T02:07:42;27.70;72.20
57576;DHT22;43412;-33.800;150.804;2023-05-24T02:10:09;27.70;73.20
57576;DHT22;43412;-33.800;150.804;2023-05-24T02:12:42;27.80;73.20
57576;DHT22;43412;-33.800;150.804;2023-05-24T02:15:10;27.80;72.70
57576;DHT22;43412;-33.800;150.804;2023-05-24T02:17:41;27.90;72.40
57576;DHT22;43412;-33.800;150.804;2023-05-24T02:20:09;27.80;71.70
57576;DHT22;43412;-33.800;150.804;2023-05-24T02:22:38;27.50;71.60
57576;DHT22;43412;-33.800;150.804;2023-05-24T02:25:07;27.10;72.10
57576;DHT22;43412;-33.800;150.804;2023-05-24T02:27:34;27.00;72.50
57576;DHT22;43412;-33.800;150.804;2023-05-24T02:30:02;27.10;72.80
57576;DHT22;43412;-33.800;150.804;2023-05-24T02:32:29;27.10;73.20
57576;DHT22;43412;-33.800;150.804;2023-05-24T02:34:56;27.00;73.50
57576;DHT22;43412;-33.800;150.804;2023-05-24T02:37:24;26.90;73.00
57576;DHT22;43412;-33.800;150.804;2023-05-24T02:39:52;26.70;72.50
57576;DHT22;43412;-33.800;150.804;2023-05-24T02:42:19;26.60;73.40
57576;DHT22;43412;-33.800;150.804;2023-05-24T02:44:46;26.50;72.80
57576;DHT22;43412;-33.800;150.804;2023-05-24T02:47:15;26.30;73.70
57576;DHT22;43412;-33.800;150.804;2023-05-24T02:49:43;25.90;72.90
57576;DHT22;43412;-33.800;150.804;2023-05-24T02:52:10;25.70;73.60
57576;DHT22;43412;-33.800;150.804;2023-05-24T02:54:39;25.70;73.50
57576;DHT22;43412;-33.800;150.804;2023-05-24T02:57:06;25.50;72.70
57576;DHT22;43412;-33.800;150.804;2023-05-24T02:59:33;25.30;73.60
57576;DHT22;43412;-33.800;150.804;2023-05-24T03:02:01;25.20;74.00
57576;DHT22;43412;-33.800;150.804;2023-05-24T03:04:29;25.00;73.90
57576;DHT22;43412;-33.800;150.804;2023-05-24T03:06:56;24.90;72.90
57576;DHT22;43412;-33.800;150.804;2023-05-24T03:09:24;24.60;73.30
57576;DHT22;43412;-33.800;150.804;2023-05-24T03:11:51;24.40;73.00
57576;DHT22;43412;-33.800;150.804;2023-05-24T03:14:20;24.20;74.10
57576;DHT22;43412;-33.800;150.804;2023-05-24T03:16:49;24.30;74.30
57576;DHT22;43412;-33.800;150.804;2023-05-24T03:19:17;24.20;74.30
57576;DHT22;43412;-33.800;150.804;2023-05-24T03:21:45;24.00;73.30
57576;DHT22;43412;-33.800;150.804;2023-05-24T03:24:12;23.60;74.40
57576;DHT22;43412;-33.800;150.804;2023-05-24T03:26:40;23.20;74.50
57576;DHT22;43412;-33.800;150.804;2023-05-24T03:29:08;22.80;74.40
57576;DHT22;43412;-33.800;150.804;2023-05-24T03:31:36;22.40;74.90
57576;DHT22;43412;-33.800;150.804;2023-05-24T03:34:03;22.20;74.60
57576;DHT22;43412;-33.800;150.804;2023-05-24T03:36:31;21.90;74.30
57576;DHT22;43412;-33.800;150.804;2023-05-24T03:38:58;21.70;75.60
57576;DHT22;43412;-33.800;150.804;2023-05-24T03:41:25;21.40;75.70
57576;DHT22;43412;-33.800;150.804;2023-05-24T03:43:53;21.10;76.20
57576;DHT22;43412;-33.800;150.804;2023-05-24T03:46:21;21.00;76.50
57576;DHT22;43412;-33.800;150.804;2023-05-24T03:48:48;20.80;76.80
57576;DHT22;43412;-33.800;150.804;2023-05-24T03:51:16;20.60;78.60
57576;DHT22;43412;-33.800;150.804;2023-05-24T03:53:43;20.40;78.30
57576;DHT22;43412;-33.800;150.804;2023-05-24T03:56:10;20.30;79.30
57576;DHT22;43412;-33.800;150.804;2023-05-24T03:58:38;20.20;78.10
57576;DHT22;43412;-33.800;150.804;2023-05-24T04:01:05;20.00;79.00
57576;DHT22;43412;-33.800;150.804;2023-05-24T04:03:34;19.90;78.70
57576;DHT22;43412;-33.800;150.804;2023-05-24T04:06:02;19.90;79.50
57576;DHT22;43412;-33.800;150.804;2023-05-24T04:08:29;19.90;78.50
57576;DHT22;43412;-33.800;150.804;2023-05-24T04:11:00;19.90;79.50
57576;DHT22;43412;-33.800;150.804;2023-05-24T04:13:27;19.70;79.80
57576;DHT22;43412;-33.800;150.804;2023-05-24T04:15:55;19.60;79.90
57576;DHT22;43412;-33.800;150.804;2023-05-24T04:18:22;19.50;79.70
57576;DHT22;43412;-33.800;150.804;2023-05-24T04:20:49;19.40;80.00
57576;DHT22;43412;-33.800;150.804;2023-05-24T04:23:17;19.30;78.00
57576;DHT22;43412;-33.800;150.804;2023-05-24T04:25:45;19.30;78.50
57576;DHT22;43412;-33.800;150.804;2023-05-24T04:28:12;19.20;79.30
57576;DHT22;43412;-33.800;150.804;2023-05-24T04:30:41;19.30;80.30
57576;DHT22;43412;-33.800;150.804;2023-05-24T04:33:11;19.30;80.10
57576;DHT22;43412;-33.800;150.804;2023-05-24T04:35:38;19.20;80.80
57576;DHT22;43412;-33.800;150.804;2023-05-24T04:38:07;19.20;80.50
57576;DHT22;43412;-33.800;150.804;2023-05-24T04:40:34;19.10;79.80
57576;DHT22;43412;-33.800;150.804;2023-05-24T04:43:01;19.10;80.40
57576;DHT22;43412;-33.800;150.804;2023-05-24T04:45:29;19.10;80.70
57576;DHT22;43412;-33.800;150.804;2023-05-24T04:47:58;19.20;80.30
57576;DHT22;43412;-33.800;150.804;2023-05-24T04:50:25;19.10;80.60
57576;DHT22;43412;-33.800;150.804;2023-05-24T04:52:54;19.00;80.20
57576;DHT22;43412;-33.800;150.804;2023-05-24T04:55:21;19.00;79.60
57576;DHT22;43412;-33.800;150.804;2023-05-24T04:57:49;19.00;78.40
57576;DHT22;43412;-33.800;150.804;2023-05-24T05:00:16;19.10;78.90
57576;DHT22;43412;-33.800;150.804;2023-05-24T05:02:44;19.10;78.20
57576;DHT22;43412;-33.800;150.804;2023-05-24T05:05:11;19.00;78.60
57576;DHT22;43412;-33.800;150.804;2023-05-24T05:07:40;18.90;78.60
57576;DHT22;43412;-33.800;150.804;2023-05-24T05:10:07;18.90;78.80
57576;DHT22;43412;-33.800;150.804;2023-05-24T05:12:35;19.00;79.20
57576;DHT22;43412;-33.800;150.804;2023-05-24T05:15:11;18.90;80.10
57576;DHT22;43412;-33.800;150.804;2023-05-24T05:17:39;18.90;79.40
57576;DHT22;43412;-33.800;150.804;2023-05-24T05:20:07;18.90;80.50
57576;DHT22;43412;-33.800;150.804;2023-05-24T05:22:34;18.80;80.70
57576;DHT22;43412;-33.800;150.804;2023-05-24T05:25:02;18.70;80.40
57576;DHT22;43412;-33.800;150.804;2023-05-24T05:27:30;18.80;79.80
57576;DHT22;43412;-33.800;150.804;2023-05-24T05:29:57;18.70;79.90
57576;DHT22;43412;-33.800;150.804;2023-05-24T05:32:24;18.70;80.60
57576;DHT22;43412;-33.800;150.804;2023-05-24T05:34:52;18.80;80.40
57576;DHT22;43412;-33.800;150.804;2023-05-24T05:37:19;18.80;81.10
57576;DHT22;43412;-33.800;150.804;2023-05-24T05:39:50;18.80;80.60
57576;DHT22;43412;-33.800;150.804;2023-05-24T05:42:17;18.80;80.40
57576;DHT22;43412;-33.800;150.804;2023-05-24T05:44:44;18.90;79.40
57576;DHT22;43412;-33.800;150.804;2023-05-24T05:47:12;18.80;80.70
57576;DHT22;43412;-33.800;150.804;2023-05-24T05:49:39;18.80;79.20
57576;DHT22;43412;-33.800;150.804;2023-05-24T05:52:07;18.80;79.80
57576;DHT22;43412;-33.800;150.804;2023-05-24T05:54:34;18.80;79.80
57576;DHT22;43412;-33.800;150.804;2023-05-24T05:57:01;18.90;80.20
57576;DHT22;43412;-33.800;150.804;2023-05-24T05:59:29;18.90;79.40
57576;DHT22;43412;-33.800;150.804;2023-05-24T06:01:58;18.90;78.90
57576;DHT22;43412;-33.800;150.804;2023-05-24T06:04:25;18.90;78.50
57576;DHT22;43412;-33.800;150.804;2023-05-24T06:06:53;18.90;80.20
57576;DHT22;43412;-33.800;150.804;2023-05-24T06:09:20;19.00;81.00
57576;DHT22;43412;-33.800;150.804;2023-05-24T06:11:47;19.00;78.20
57576;DHT22;43412;-33.800;150.804;2023-05-24T06:14:15;19.00;78.10
57576;DHT22;43412;-33.800;150.804;2023-05-24T06:16:47;19.10;80.10
57576;DHT22;43412;-33.800;150.804;2023-05-24T06:19:15;19.10;80.10
57576;DHT22;43412;-33.800;150.804;2023-05-24T06:21:49;19.10;80.90
57576;DHT22;43412;-33.800;150.804;2023-05-24T06:24:17;19.10;83.40
57576;DHT22;43412;-33.800;150.804;2023-05-24T06:26:49;19.10;82.40
57576;DHT22;43412;-33.800;150.804;2023-05-24T06:29:17;19.00;81.60
57576;DHT22;43412;-33.800;150.804;2023-05-24T06:31:48;18.90;81.80
57576;DHT22;43412;-33.800;150.804;2023-05-24T06:34:16;18.70;81.50
57576;DHT22;43412;-33.800;150.804;2023-05-24T06:36:48;18.50;81.30
57576;DHT22;43412;-33.800;150.804;2023-05-24T06:39:16;18.30;81.60
57576;DHT22;43412;-33.800;150.804;2023-05-24T06:41:47;18.00;81.80
57576;DHT22;43412;-33.800;150.804;2023-05-24T06:44:17;17.80;82.40
57576;DHT22;43412;-33.800;150.804;2023-05-24T06:46:44;17.50;83.10
57576;DHT22;43412;-33.800;150.804;2023-05-24T06:49:12;17.30;84.60
57576;DHT22;43412;-33.800;150.804;2023-05-24T06:51:41;17.10;86.10
57576;DHT22;43412;-33.800;150.804;2023-05-24T06:54:09;17.00;87.20
57576;DHT22;43412;-33.800;150.804;2023-05-24T06:56:36;16.80;87.70
57576;DHT22;43412;-33.800;150.804;2023-05-24T06:59:04;16.60;88.80
57576;DHT22;43412;-33.800;150.804;2023-05-24T07:01:32;16.40;89.50
57576;DHT22;43412;-33.800;150.804;2023-05-24T07:03:59;16.20;90.00
57576;DHT22;43412;-33.800;150.804;2023-05-24T07:06:26;16.00;90.40
57576;DHT22;43412;-33.800;150.804;2023-05-24T07:08:54;15.80;90.70
57576;DHT22;43412;-33.800;150.804;2023-05-24T07:11:21;15.70;91.10
57576;DHT22;43412;-33.800;150.804;2023-05-24T07:13:49;15.50;91.20
57576;DHT22;43412;-33.800;150.804;2023-05-24T07:16:17;15.40;91.50
57576;DHT22;43412;-33.800;150.804;2023-05-24T07:18:44;15.30;91.70
57576;DHT22;43412;-33.800;150.804;2023-05-24T07:21:12;15.30;91.60
57576;DHT22;43412;-33.800;150.804;2023-05-24T07:23:39;15.20;91.80
57576;DHT22;43412;-33.800;150.804;2023-05-24T07:26:13;15.10;92.00
57576;DHT22;43412;-33.800;150.804;2023-05-24T07:28:43;15.00;92.00
57576;DHT22;43412;-33.800;150.804;2023-05-24T07:31:11;14.90;92.60
57576;DHT22;43412;-33.800;150.804;2023-05-24T07:33:38;14.80;93.10
57576;DHT22;43412;-33.800;150.804;2023-05-24T07:36:06;14.60;93.40
57576;DHT22;43412;-33.800;150.804;2023-05-24T07:38:34;14.50;93.60
57576;DHT22;43412;-33.800;150.804;2023-05-24T07:41:02;14.30;93.50
57576;DHT22;43412;-33.800;150.804;2023-05-24T07:43:31;14.20;93.60
57576;DHT22;43412;-33.800;150.804;2023-05-24T07:46:02;14.10;93.70
57576;DHT22;43412;-33.800;150.804;2023-05-24T07:48:30;14.10;93.70
57576;DHT22;43412;-33.800;150.804;2023-05-24T07:51:01;14.10;93.80
57576;DHT22;43412;-33.800;150.804;2023-05-24T07:53:29;14.10;94.20
57576;DHT22;43412;-33.800;150.804;2023-05-24T07:55:56;14.10;94.70
57576;DHT22;43412;-33.800;150.804;2023-05-24T07:58:24;14.00;94.90
57576;DHT22;43412;-33.800;150.804;2023-05-24T08:00:53;13.90;95.20
57576;DHT22;43412;-33.800;150.804;2023-05-24T08:03:21;13.90;95.50
57576;DHT22;43412;-33.800;150.804;2023-05-24T08:05:51;13.70;95.70
57576;DHT22;43412;-33.800;150.804;2023-05-24T08:08:19;13.60;95.90
57576;DHT22;43412;-33.800;150.804;2023-05-24T08:10:49;13.50;96.10
57576;DHT22;43412;-33.800;150.804;2023-05-24T08:13:17;13.30;96.40
57576;DHT22;43412;-33.800;150.804;2023-05-24T08:15:44;13.30;96.80
57576;DHT22;43412;-33.800;150.804;2023-05-24T08:18:11;13.20;97.20
57576;DHT22;43412;-33.800;150.804;2023-05-24T08:20:39;13.10;97.60
57576;DHT22;43412;-33.800;150.804;2023-05-24T08:23:06;13.10;97.80
57576;DHT22;43412;-33.800;150.804;2023-05-24T08:25:34;13.10;98.20
57576;DHT22;43412;-33.800;150.804;2023-05-24T08:28:01;13.00;98.50
57576;DHT22;43412;-33.800;150.804;2023-05-24T08:30:29;12.90;98.80
57576;DHT22;43412;-33.800;150.804;2023-05-24T08:32:57;12.80;99.00
57576;DHT22;43412;-33.800;150.804;2023-05-24T08:35:25;12.70;99.50
57576;DHT22;43412;-33.800;150.804;2023-05-24T08:37:52;12.70;99.90
57576;DHT22;43412;-33.800;150.804;2023-05-24T08:40:19;12.60;99.90
57576;DHT22;43412;-33.800;150.804;2023-05-24T08:42:49;12.50;99.90
57576;DHT22;43412;-33.800;150.804;2023-05-24T08:45:19;12.40;99.90
57576;DHT22;43412;-33.800;150.804;2023-05-24T08:47:47;12.30;99.90
57576;DHT22;43412;-33.800;150.804;2023-05-24T08:50:17;12.20;99.90
57576;DHT22;43412;-33.800;150.804;2023-05-24T08:52:45;12.10;99.90
57576;DHT22;43412;-33.800;150.804;2023-05-24T08:55:14;12.00;99.90
57576;DHT22;43412;-33.800;150.804;2023-05-24T08:57:42;11.90;99.90
57576;DHT22;43412;-33.800;150.804;2023-05-24T09:00:11;11.90;99.90
57576;DHT22;43412;-33.800;150.804;2023-05-24T09:02:40;11.90;99.90
57576;DHT22;43412;-33.800;150.804;2023-05-24T09:05:10;11.80;99.90
57576;DHT22;43412;-33.800;150.804;2023-05-24T09:07:37;11.80;99.90
57576;DHT22;43412;-33.800;150.804;2023-05-24T09:10:07;11.80;99.90
57576;DHT22;43412;-33.800;150.804;2023-05-24T09:12:37;11.90;99.90
57576;DHT22;43412;-33.800;150.804;2023-05-24T09:15:05;11.90;99.90
57576;DHT22;43412;-33.800;150.804;2023-05-24T09:17:37;11.90;99.90
57576;DHT22;43412;-33.800;150.804;2023-05-24T09:20:06;11.80;99.90
57576;DHT22;43412;-33.800;150.804;2023-05-24T09:22:36;11.70;99.90
57576;DHT22;43412;-33.800;150.804;2023-05-24T09:25:07;11.60;99.90
57576;DHT22;43412;-33.800;150.804;2023-05-24T09:27:35;11.60;99.90
57576;DHT22;43412;-33.800;150.804;2023-05-24T09:30:08;11.40;99.90
57576;DHT22;43412;-33.800;150.804;2023-05-24T09:32:36;11.30;99.90
57576;DHT22;43412;-33.800;150.804;2023-05-24T09:35:07;11.20;99.90
57576;DHT22;43412;-33.800;150.804;2023-05-24T09:37:38;11.10;99.90
57576;DHT22;43412;-33.800;150.804;2023-05-24T09:40:06;11.00;99.90
57576;DHT22;43412;-33.800;150.804;2023-05-24T09:42:43;11.00;99.90
57576;DHT22;43412;-33.800;150.804;2023-05-24T09:45:12;10.90;99.90
57576;DHT22;43412;-33.800;150.804;2023-05-24T09:47:40;10.80;99.90
57576;DHT22;43412;-33.800;150.804;2023-05-24T09:50:15;10.80;99.90
57576;DHT22;43412;-33.800;150.804;2023-05-24T09:52:45;10.80;99.90
57576;DHT22;43412;-33.800;150.804;2023-05-24T09:55:18;10.80;99.90
57576;DHT22;43412;-33.800;150.804;2023-05-24T09:58:10;10.70;99.90
57576;DHT22;43412;-33.800;150.804;2023-05-24T10:00:39;10.70;99.90
57576;DHT22;43412;-33.800;150.804;2023-05-24T10:03:08;10.60;99.90
57576;DHT22;43412;-33.800;150.804;2023-05-24T10:05:46;10.60;99.90
57576;DHT22;43412;-33.800;150.804;2023-05-24T10:08:15;10.50;99.90
57576;DHT22;43412;-33.800;150.804;2023-05-24T10:10:44;10.50;99.90
57576;DHT22;43412;-33.800;150.804;2023-05-24T10:13:12;10.40;99.90
57576;DHT22;43412;-33.800;150.804;2023-05-24T10:15:41;10.40;99.90
57576;DHT22;43412;-33.800;150.804;2023-05-24T10:18:08;10.30;99.90
57576;DHT22;43412;-33.800;150.804;2023-05-24T10:20:36;10.20;99.90
57576;DHT22;43412;-33.800;150.804;2023-05-24T10:23:07;10.20;99.90
57576;DHT22;43412;-33.800;150.804;2023-05-24T10:25:44;10.10;99.90
57576;DHT22;43412;-33.800;150.804;2023-05-24T10:28:14;10.00;99.90
57576;DHT22;43412;-33.800;150.804;2023-05-24T10:33:33;9.90;99.90
57576;DHT22;43412;-33.800;150.804;2023-05-24T10:36:04;9.80;99.90
57576;DHT22;43412;-33.800;150.804;2023-05-24T10:38:32;9.70;99.90
57576;DHT22;43412;-33.800;150.804;2023-05-24T10:41:00;9.70;99.90
57576;DHT22;43412;-33.800;150.804;2023-05-24T10:43:28;9.60;99.90
57576;DHT22;43412;-33.800;150.804;2023-05-24T10:45:56;9.60;99.90
57576;DHT22;43412;-33.800;150.804;2023-05-24T10:50:55;9.50;99.90
57576;DHT22;43412;-33.800;150.804;2023-05-24T10:53:26;9.50;99.90
57576;DHT22;43412;-33.800;150.804;2023-05-24T10:56:04;9.50;99.90
57576;DHT22;43412;-33.800;150.804;2023-05-24T10:58:44;9.50;99.90
57576;DHT22;43412;-33.800;150.804;2023-05-24T11:01:31;9.50;99.90
57576;DHT22;43412;-33.800;150.804;2023-05-24T11:04:18;9.50;99.90
57576;DHT22;43412;-33.800;150.804;2023-05-24T11:06:45;9.50;99.90
57576;DHT22;43412;-33.800;150.804;2023-05-24T11:09:18;9.50;99.90
57576;DHT22;43412;-33.800;150.804;2023-05-24T11:11:51;9.50;99.90
57576;DHT22;43412;-33.800;150.804;2023-05-24T11:14:23;9.40;99.90
57576;DHT22;43412;-33.800;150.804;2023-05-24T11:16:51;9.40;99.90
57576;DHT22;43412;-33.800;150.804;2023-05-24T11:19:20;9.40;99.90
57576;DHT22;43412;-33.800;150.804;2023-05-24T11:21:49;9.30;99.90
57576;DHT22;43412;-33.800;150.804;2023-05-24T11:24:18;9.30;99.90
57576;DHT22;43412;-33.800;150.804;2023-05-24T11:26:46;9.20;99.90
57576;DHT22;43412;-33.800;150.804;2023-05-24T11:29:14;9.20;99.90
57576;DHT22;43412;-33.800;150.804;2023-05-24T11:32:17;9.10;99.90
57576;DHT22;43412;-33.800;150.804;2023-05-24T11:34:46;9.00;99.90
57576;DHT22;43412;-33.800;150.804;2023-05-24T11:37:13;9.00;99.90
57576;DHT22;43412;-33.800;150.804;2023-05-24T11:39:41;8.90;99.90
57576;DHT22;43412;-33.800;150.804;2023-05-24T11:42:09;8.80;99.90
57576;DHT22;43412;-33.800;150.804;2023-05-24T11:44:36;8.80;99.90
57576;DHT22;43412;-33.800;150.804;2023-05-24T11:47:06;8.70;99.90
57576;DHT22;43412;-33.800;150.804;2023-05-24T11:49:34;8.70;99.90
57576;DHT22;43412;-33.800;150.804;2023-05-24T11:52:04;8.60;99.90
57576;DHT22;43412;-33.800;150.804;2023-05-24T11:54:32;8.60;99.90
57576;DHT22;43412;-33.800;150.804;2023-05-24T11:57:00;8.60;99.90
57576;DHT22;43412;-33.800;150.804;2023-05-24T11:59:29;8.60;99.90
57576;DHT22;43412;-33.800;150.804;2023-05-24T12:02:04;8.50;99.90
57576;DHT22;43412;-33.800;150.804;2023-05-24T12:04:33;8.50;99.90
57576;DHT22;43412;-33.800;150.804;2023-05-24T12:07:00;8.50;99.90
57576;DHT22;43412;-33.800;150.804;2023-05-24T12:09:28;8.40;99.90
57576;DHT22;43412;-33.800;150.804;2023-05-24T12:11:56;8.30;99.90
57576;DHT22;43412;-33.800;150.804;2023-05-24T12:14:28;8.20;99.90
57576;DHT22;43412;-33.800;150.804;2023-05-24T12:17:02;8.20;99.90
57576;DHT22;43412;-33.800;150.804;2023-05-24T12:19:31;8.10;99.90
57576;DHT22;43412;-33.800;150.804;2023-05-24T12:22:06;8.10;99.90
57576;DHT22;43412;-33.800;150.804;2023-05-24T12:24:35;8.10;99.90
57576;DHT22;43412;-33.800;150.804;2023-05-24T12:27:04;8.00;99.90
57576;DHT22;43412;-33.800;150.804;2023-05-24T12:29:36;8.00;99.90
57576;DHT22;43412;-33.800;150.804;2023-05-24T12:32:06;7.90;99.90
57576;DHT22;43412;-33.800;150.804;2023-05-24T12:34:40;7.90;99.90
57576;DHT22;43412;-33.800;150.804;2023-05-24T12:37:08;7.80;99.90
57576;DHT22;43412;-33.800;150.804;2023-05-24T12:39:37;7.80;99.90
57576;DHT22;43412;-33.800;150.804;2023-05-24T12:42:07;7.80;99.90
57576;DHT22;43412;-33.800;150.804;2023-05-24T12:44:38;7.80;99.90
57576;DHT22;43412;-33.800;150.804;2023-05-24T12:47:06;7.80;99.90
57576;DHT22;43412;-33.800;150.804;2023-05-24T12:49:34;7.80;99.90
57576;DHT22;43412;-33.800;150.804;2023-05-24T12:52:01;7.80;99.90
57576;DHT22;43412;-33.800;150.804;2023-05-24T12:54:29;7.80;99.90
57576;DHT22;43412;-33.800;150.804;2023-05-24T12:56:57;7.80;99.90
57576;DHT22;43412;-33.800;150.804;2023-05-24T12:59:31;7.70;99.90
57576;DHT22;43412;-33.800;150.804;2023-05-24T13:01:58;7.60;99.90
57576;DHT22;43412;-33.800;150.804;2023-05-24T13:04:26;7.60;99.90
57576;DHT22;43412;-33.800;150.804;2023-05-24T13:06:55;7.50;99.90
57576;DHT22;43412;-33.800;150.804;2023-05-24T13:09:23;7.60;99.90
57576;DHT22;43412;-33.800;150.804;2023-05-24T13:11:51;7.60;99.90
57576;DHT22;43412;-33.800;150.804;2023-05-24T13:14:22;7.60;99.90
57576;DHT22;43412;-33.800;150.804;2023-05-24T13:16:52;7.60;99.90
57576;DHT22;43412;-33.800;150.804;2023-05-24T13:19:20;7.60;99.90
57576;DHT22;43412;-33.800;150.804;2023-05-24T13:21:48;7.60;99.90
57576;DHT22;43412;-33.800;150.804;2023-05-24T13:24:15;7.60;99.90
57576;DHT22;43412;-33.800;150.804;2023-05-24T13:26:43;7.50;99.90
57576;DHT22;43412;-33.800;150.804;2023-05-24T13:29:11;7.40;99.90
57576;DHT22;43412;-33.800;150.804;2023-05-24T13:31:39;7.30;99.90
57576;DHT22;43412;-33.800;150.804;2023-05-24T13:34:07;7.30;99.90
57576;DHT22;43412;-33.800;150.804;2023-05-24T13:36:36;7.20;99.90
57576;DHT22;43412;-33.800;150.804;2023-05-24T13:39:04;7.20;99.90
57576;DHT22;43412;-33.800;150.804;2023-05-24T13:41:35;7.20;99.90
57576;DHT22;43412;-33.800;150.804;2023-05-24T13:44:03;7.10;99.90
57576;DHT22;43412;-33.800;150.804;2023-05-24T13:46:37;7.10;99.90
57576;DHT22;43412;-33.800;150.804;2023-05-24T13:49:15;7.10;99.90
57576;DHT22;43412;-33.800;150.804;2023-05-24T13:51:42;7.00;99.90
57576;DHT22;43412;-33.800;150.804;2023-05-24T13:54:13;6.90;99.90
57576;DHT22;43412;-33.800;150.804;2023-05-24T13:56:46;6.90;99.90
57576;DHT22;43412;-33.800;150.804;2023-05-24T13:59:18;6.80;99.90
57576;DHT22;43412;-33.800;150.804;2023-05-24T14:01:46;6.80;99.90
57576;DHT22;43412;-33.800;150.804;2023-05-24T14:04:13;6.80;99.90
57576;DHT22;43412;-33.800;150.804;2023-05-24T14:06:42;6.70;99.90
57576;DHT22;43412;-33.800;150.804;2023-05-24T14:09:09;6.70;99.90
57576;DHT22;43412;-33.800;150.804;2023-05-24T14:11:37;6.80;99.90
57576;DHT22;43412;-33.800;150.804;2023-05-24T14:14:04;6.70;99.90
57576;DHT22;43412;-33.800;150.804;2023-05-24T14:16:31;6.80;99.90
57576;DHT22;43412;-33.800;150.804;2023-05-24T14:18:59;6.70;99.90
57576;DHT22;43412;-33.800;150.804;2023-05-24T14:21:26;6.70;99.90
57576;DHT22;43412;-33.800;150.804;2023-05-24T14:23:53;6.60;99.90
57576;DHT22;43412;-33.800;150.804;2023-05-24T14:26:21;6.70;99.90
57576;DHT22;43412;-33.800;150.804;2023-05-24T14:28:48;6.60;99.90
57576;DHT22;43412;-33.800;150.804;2023-05-24T14:31:16;6.70;99.90
57576;DHT22;43412;-33.800;150.804;2023-05-24T14:33:44;6.60;99.90
57576;DHT22;43412;-33.800;150.804;2023-05-24T14:36:11;6.60;99.90
57576;DHT22;43412;-33.800;150.804;2023-05-24T14:38:40;6.60;99.90
57576;DHT22;43412;-33.800;150.804;2023-05-24T14:41:07;6.60;99.90
57576;DHT22;43412;-33.800;150.804;2023-05-24T14:43:38;6.50;99.90
57576;DHT22;43412;-33.800;150.804;2023-05-24T14:46:07;6.40;99.90
57576;DHT22;43412;-33.800;150.804;2023-05-24T14:48:35;6.30;99.90
57576;DHT22;43412;-33.800;150.804;2023-05-24T14:51:02;6.30;99.90
57576;DHT22;43412;-33.800;150.804;2023-05-24T14:53:30;6.30;99.90
57576;DHT22;43412;-33.800;150.804;2023-05-24T14:55:57;6.20;99.90
57576;DHT22;43412;-33.800;150.804;2023-05-24T14:58:24;6.10;99.90
57576;DHT22;43412;-33.800;150.804;2023-05-24T15:00:52;6.10;99.90
57576;DHT22;43412;-33.800;150.804;2023-05-24T15:03:20;6.10;99.90
57576;DHT22;43412;-33.800;150.804;2023-05-24T15:05:47;6.00;99.90
57576;DHT22;43412;-33.800;150.804;2023-05-24T15:08:14;6.00;99.90
57576;DHT22;43412;-33.800;150.804;2023-05-24T15:10:42;5.90;99.90
57576;DHT22;43412;-33.800;150.804;2023-05-24T15:13:12;5.80;99.90
57576;DHT22;43412;-33.800;150.804;2023-05-24T15:15:40;5.80;99.90
57576;DHT22;43412;-33.800;150.804;2023-05-24T15:18:07;5.80;99.90
57576;DHT22;43412;-33.800;150.804;2023-05-24T15:20:35;5.70;99.90